sensor_id;sensor_type;location;lat;lon;timestamp;temperature;humidity
68476;DHT22;55464;48.266;14.188;2023-02-26T00:00:06;2.00;85.30
68476;DHT22;55464;48.266;14.188;2023-02-26T00:02:34;2.00;84.50
68476;DHT22;55464;48.266;14.188;2023-02-26T00:05:02;1.90;83.20
68476;DHT22;55464;48.266;14.188;2023-02-26T00:07:27;2.00;82.80
68476;DHT22;55464;48.266;14.188;2023-02-26T00:09:54;1.90;83.10
68476;DHT22;55464;48.266;14.188;2023-02-26T00:12:20;1.80;84.00
68476;DHT22;55464;48.266;14.188;2023-02-26T00:14:46;1.90;84.40
68476;DHT22;55464;48.266;14.188;2023-02-26T00:17:29;1.80;83.60
68476;DHT22;55464;48.266;14.188;2023-02-26T00:19:56;1.80;83.50
68476;DHT22;55464;48.266;14.188;2023-02-26T00:22:22;1.80;83.50
68476;DHT22;55464;48.266;14.188;2023-02-26T00:24:48;1.80;83.30
68476;DHT22;55464;48.266;14.188;2023-02-26T00:27:14;1.70;83.40
68476;DHT22;55464;48.266;14.188;2023-02-26T00:29:40;1.80;83.10
68476;DHT22;55464;48.266;14.188;2023-02-26T00:32:06;1.90;83.00
68476;DHT22;55464;48.266;14.188;2023-02-26T00:34:32;1.80;83.40
68476;DHT22;55464;48.266;14.188;2023-02-26T00:39:50;1.80;84.10
68476;DHT22;55464;48.266;14.188;2023-02-26T00:42:21;1.80;84.20
68476;DHT22;55464;48.266;14.188;2023-02-26T00:44:47;1.80;84.50
68476;DHT22;55464;48.266;14.188;2023-02-26T00:47:39;1.80;84.60
68476;DHT22;55464;48.266;14.188;2023-02-26T00:55:07;1.80;84.90
68476;DHT22;55464;48.266;14.188;2023-02-26T00:57:33;1.70;85.00
68476;DHT22;55464;48.266;14.188;2023-02-26T00:59:59;1.60;84.90
68476;DHT22;55464;48.266;14.188;2023-02-26T01:02:24;1.60;85.30
68476;DHT22;55464;48.266;14.188;2023-02-26T01:04:51;1.50;85.00
68476;DHT22;55464;48.266;14.188;2023-02-26T01:07:20;1.30;84.90
68476;DHT22;55464;48.266;14.188;2023-02-26T01:09:48;1.20;84.60
68476;DHT22;55464;48.266;14.188;2023-02-26T01:12:13;1.10;84.40
68476;DHT22;55464;48.266;14.188;2023-02-26T01:14:42;1.10;84.40
68476;DHT22;55464;48.266;14.188;2023-02-26T01:20:22;0.80;85.10
68476;DHT22;55464;48.266;14.188;2023-02-26T01:25:33;0.80;82.00
68476;DHT22;55464;48.266;14.188;2023-02-26T01:28:01;0.80;81.50
68476;DHT22;55464;48.266;14.188;2023-02-26T01:30:27;0.60;81.70
68476;DHT22;55464;48.266;14.188;2023-02-26T01:33:29;0.60;82.80
68476;DHT22;55464;48.266;14.188;2023-02-26T01:36:06;0.50;82.50
68476;DHT22;55464;48.266;14.188;2023-02-26T01:38:43;0.40;81.80
68476;DHT22;55464;48.266;14.188;2023-02-26T01:44:04;0.50;81.80
68476;DHT22;55464;48.266;14.188;2023-02-26T01:46:49;0.40;81.50
68476;DHT22;55464;48.266;14.188;2023-02-26T01:49:18;0.40;81.30
68476;DHT22;55464;48.266;14.188;2023-02-26T01:51:48;0.50;80.30
68476;DHT22;55464;48.266;14.188;2023-02-26T01:54:15;0.50;80.30
68476;DHT22;55464;48.266;14.188;2023-02-26T01:56:42;0.50;79.90
68476;DHT22;55464;48.266;14.188;2023-02-26T01:59:11;0.50;79.10
68476;DHT22;55464;48.266;14.188;2023-02-26T02:01:39;0.50;79.30
68476;DHT22;55464;48.266;14.188;2023-02-26T02:04:09;0.40;79.70
68476;DHT22;55464;48.266;14.188;2023-02-26T02:06:36;0.30;80.00
68476;DHT22;55464;48.266;14.188;2023-02-26T02:09:05;0.20;80.40
68476;DHT22;55464;48.266;14.188;2023-02-26T02:11:31;0.20;80.60
68476;DHT22;55464;48.266;14.188;2023-02-26T02:19:23;0.50;78.60
68476;DHT22;55464;48.266;14.188;2023-02-26T02:22:01;0.30;79.40
68476;DHT22;55464;48.266;14.188;2023-02-26T02:32:43;0.40;76.50
68476;DHT22;55464;48.266;14.188;2023-02-26T02:35:13;0.50;75.60
68476;DHT22;55464;48.266;14.188;2023-02-26T02:40:21;0.50;76.10
68476;DHT22;55464;48.266;14.188;2023-02-26T02:42:57;0.30;76.80
68476;DHT22;55464;48.266;14.188;2023-02-26T02:45:53;0.40;76.40
68476;DHT22;55464;48.266;14.188;2023-02-26T02:48:23;0.60;74.70
68476;DHT22;55464;48.266;14.188;2023-02-26T02:51:00;0.60;74.90
68476;DHT22;55464;48.266;14.188;2023-02-26T02:56:06;0.70;72.90
68476;DHT22;55464;48.266;14.188;2023-02-26T02:58:41;0.80;72.90
68476;DHT22;55464;48.266;14.188;2023-02-26T03:01:11;0.90;72.50
68476;DHT22;55464;48.266;14.188;2023-02-26T03:03:54;1.00;72.30
68476;DHT22;55464;48.266;14.188;2023-02-26T03:06:20;1.00;72.40
68476;DHT22;55464;48.266;14.188;2023-02-26T03:08:47;1.00;71.70
68476;DHT22;55464;48.266;14.188;2023-02-26T03:11:13;1.00;73.10
68476;DHT22;55464;48.266;14.188;2023-02-26T03:13:39;1.00;73.80
68476;DHT22;55464;48.266;14.188;2023-02-26T03:19:21;0.90;73.70
68476;DHT22;55464;48.266;14.188;2023-02-26T03:22:11;1.00;72.30
68476;DHT22;55464;48.266;14.188;2023-02-26T03:27:42;0.90;74.30
68476;DHT22;55464;48.266;14.188;2023-02-26T03:30:25;0.90;73.40
68476;DHT22;55464;48.266;14.188;2023-02-26T03:38:27;0.90;74.90
68476;DHT22;55464;48.266;14.188;2023-02-26T03:41:06;0.90;75.00
68476;DHT22;55464;48.266;14.188;2023-02-26T03:46:47;0.70;75.80
68476;DHT22;55464;48.266;14.188;2023-02-26T03:49:32;0.80;75.00
68476;DHT22;55464;48.266;14.188;2023-02-26T03:51:59;0.80;74.20
68476;DHT22;55464;48.266;14.188;2023-02-26T03:54:33;0.90;73.50
68476;DHT22;55464;48.266;14.188;2023-02-26T03:56:59;0.90;72.10
68476;DHT22;55464;48.266;14.188;2023-02-26T03:59:24;0.90;72.20
68476;DHT22;55464;48.266;14.188;2023-02-26T04:02:07;0.90;71.40
68476;DHT22;55464;48.266;14.188;2023-02-26T04:05:02;0.90;71.10
68476;DHT22;55464;48.266;14.188;2023-02-26T04:07:31;0.80;70.00
68476;DHT22;55464;48.266;14.188;2023-02-26T04:09:57;0.80;70.00
68476;DHT22;55464;48.266;14.188;2023-02-26T04:12:24;0.80;70.30
68476;DHT22;55464;48.266;14.188;2023-02-26T04:14:50;0.70;70.60
68476;DHT22;55464;48.266;14.188;2023-02-26T04:17:16;0.60;71.30
68476;DHT22;55464;48.266;14.188;2023-02-26T04:19:42;0.40;72.50
68476;DHT22;55464;48.266;14.188;2023-02-26T04:22:08;0.50;73.70
68476;DHT22;55464;48.266;14.188;2023-02-26T04:24:34;0.60;72.20
68476;DHT22;55464;48.266;14.188;2023-02-26T04:26:59;0.60;72.20
68476;DHT22;55464;48.266;14.188;2023-02-26T04:29:25;0.60;72.80
68476;DHT22;55464;48.266;14.188;2023-02-26T04:31:52;0.60;72.80
68476;DHT22;55464;48.266;14.188;2023-02-26T04:34:17;0.50;74.00
68476;DHT22;55464;48.266;14.188;2023-02-26T04:36:43;0.40;74.80
68476;DHT22;55464;48.266;14.188;2023-02-26T04:39:09;0.40;75.40
68476;DHT22;55464;48.266;14.188;2023-02-26T04:41:35;0.30;76.40
68476;DHT22;55464;48.266;14.188;2023-02-26T04:44:01;0.30;76.50
68476;DHT22;55464;48.266;14.188;2023-02-26T04:46:28;0.20;77.60
68476;DHT22;55464;48.266;14.188;2023-02-26T04:48:54;0.10;77.80
68476;DHT22;55464;48.266;14.188;2023-02-26T04:51:19;0.30;77.20
68476;DHT22;55464;48.266;14.188;2023-02-26T04:53:45;0.40;76.50
68476;DHT22;55464;48.266;14.188;2023-02-26T04:56:11;0.50;75.10
68476;DHT22;55464;48.266;14.188;2023-02-26T04:58:37;0.50;73.70
68476;DHT22;55464;48.266;14.188;2023-02-26T05:01:03;0.40;72.50
68476;DHT22;55464;48.266;14.188;2023-02-26T05:03:28;0.50;72.80
68476;DHT22;55464;48.266;14.188;2023-02-26T05:05:54;0.40;74.90
68476;DHT22;55464;48.266;14.188;2023-02-26T05:08:20;0.60;74.40
68476;DHT22;55464;48.266;14.188;2023-02-26T05:10:46;0.60;73.60
68476;DHT22;55464;48.266;14.188;2023-02-26T05:13:11;0.60;73.60
68476;DHT22;55464;48.266;14.188;2023-02-26T05:15:37;0.70;74.00
68476;DHT22;55464;48.266;14.188;2023-02-26T05:18:03;0.80;74.30
68476;DHT22;55464;48.266;14.188;2023-02-26T05:20:28;0.80;73.70
68476;DHT22;55464;48.266;14.188;2023-02-26T05:22:54;0.80;72.50
68476;DHT22;55464;48.266;14.188;2023-02-26T05:25:20;0.80;72.00
68476;DHT22;55464;48.266;14.188;2023-02-26T05:27:45;0.80;73.10
68476;DHT22;55464;48.266;14.188;2023-02-26T05:30:14;0.80;74.40
68476;DHT22;55464;48.266;14.188;2023-02-26T05:32:40;0.80;73.10
68476;DHT22;55464;48.266;14.188;2023-02-26T05:35:06;0.80;74.60
68476;DHT22;55464;48.266;14.188;2023-02-26T05:37:32;0.90;74.20
68476;DHT22;55464;48.266;14.188;2023-02-26T05:39:58;0.90;73.90
68476;DHT22;55464;48.266;14.188;2023-02-26T05:42:23;0.90;73.90
68476;DHT22;55464;48.266;14.188;2023-02-26T05:44:49;0.90;74.00
68476;DHT22;55464;48.266;14.188;2023-02-26T05:47:16;0.90;74.20
68476;DHT22;55464;48.266;14.188;2023-02-26T05:49:42;1.00;74.50
68476;DHT22;55464;48.266;14.188;2023-02-26T05:52:07;0.90;74.20
68476;DHT22;55464;48.266;14.188;2023-02-26T05:54:33;0.80;75.80
68476;DHT22;55464;48.266;14.188;2023-02-26T05:56:59;0.90;74.90
68476;DHT22;55464;48.266;14.188;2023-02-26T05:59:25;1.00;72.90
68476;DHT22;55464;48.266;14.188;2023-02-26T06:01:50;0.90;73.30
68476;DHT22;55464;48.266;14.188;2023-02-26T06:04:16;0.90;75.50
68476;DHT22;55464;48.266;14.188;2023-02-26T06:06:41;0.80;75.80
68476;DHT22;55464;48.266;14.188;2023-02-26T06:09:07;0.90;75.30
68476;DHT22;55464;48.266;14.188;2023-02-26T06:11:33;0.90;73.10
68476;DHT22;55464;48.266;14.188;2023-02-26T06:13:58;0.90;73.00
68476;DHT22;55464;48.266;14.188;2023-02-26T06:16:24;0.90;73.60
68476;DHT22;55464;48.266;14.188;2023-02-26T06:18:49;0.90;74.50
68476;DHT22;55464;48.266;14.188;2023-02-26T06:21:15;0.80;75.30
68476;DHT22;55464;48.266;14.188;2023-02-26T06:23:41;0.80;75.10
68476;DHT22;55464;48.266;14.188;2023-02-26T06:26:07;0.80;75.30
68476;DHT22;55464;48.266;14.188;2023-02-26T06:28:32;0.80;75.40
68476;DHT22;55464;48.266;14.188;2023-02-26T06:30:58;0.70;75.80
68476;DHT22;55464;48.266;14.188;2023-02-26T06:33:23;0.80;75.60
68476;DHT22;55464;48.266;14.188;2023-02-26T06:35:49;0.80;75.70
68476;DHT22;55464;48.266;14.188;2023-02-26T06:38:15;0.80;75.20
68476;DHT22;55464;48.266;14.188;2023-02-26T06:40:41;0.80;75.90
68476;DHT22;55464;48.266;14.188;2023-02-26T06:43:06;0.80;76.20
68476;DHT22;55464;48.266;14.188;2023-02-26T06:45:32;0.80;76.20
68476;DHT22;55464;48.266;14.188;2023-02-26T06:47:57;0.90;76.20
68476;DHT22;55464;48.266;14.188;2023-02-26T06:50:23;0.90;75.80
68476;DHT22;55464;48.266;14.188;2023-02-26T06:52:49;0.80;76.20
68476;DHT22;55464;48.266;14.188;2023-02-26T06:55:15;0.80;77.10
68476;DHT22;55464;48.266;14.188;2023-02-26T06:57:40;0.70;77.90
68476;DHT22;55464;48.266;14.188;2023-02-26T07:00:06;0.90;77.30
68476;DHT22;55464;48.266;14.188;2023-02-26T07:02:32;0.90;76.90
68476;DHT22;55464;48.266;14.188;2023-02-26T07:04:58;1.00;77.50
68476;DHT22;55464;48.266;14.188;2023-02-26T07:07:23;1.00;76.90
68476;DHT22;55464;48.266;14.188;2023-02-26T07:09:49;1.00;76.70
68476;DHT22;55464;48.266;14.188;2023-02-26T07:12:14;1.00;77.50
68476;DHT22;55464;48.266;14.188;2023-02-26T07:14:40;1.00;77.50
68476;DHT22;55464;48.266;14.188;2023-02-26T07:17:07;1.00;76.80
68476;DHT22;55464;48.266;14.188;2023-02-26T07:19:33;1.10;76.90
68476;DHT22;55464;48.266;14.188;2023-02-26T07:21:58;1.00;78.50
68476;DHT22;55464;48.266;14.188;2023-02-26T07:24:24;1.00;78.60
68476;DHT22;55464;48.266;14.188;2023-02-26T07:26:49;0.90;79.20
68476;DHT22;55464;48.266;14.188;2023-02-26T07:29:15;1.00;78.90
68476;DHT22;55464;48.266;14.188;2023-02-26T07:31:41;1.10;78.30
68476;DHT22;55464;48.266;14.188;2023-02-26T07:34:06;1.10;78.30
68476;DHT22;55464;48.266;14.188;2023-02-26T07:36:32;1.10;78.40
68476;DHT22;55464;48.266;14.188;2023-02-26T07:38:57;1.20;78.60
68476;DHT22;55464;48.266;14.188;2023-02-26T07:41:23;1.20;78.70
68476;DHT22;55464;48.266;14.188;2023-02-26T07:43:48;1.20;78.70
68476;DHT22;55464;48.266;14.188;2023-02-26T07:46:14;1.20;79.30
68476;DHT22;55464;48.266;14.188;2023-02-26T07:48:39;1.20;79.60
68476;DHT22;55464;48.266;14.188;2023-02-26T07:51:05;1.20;79.40
68476;DHT22;55464;48.266;14.188;2023-02-26T07:53:32;1.20;79.50
68476;DHT22;55464;48.266;14.188;2023-02-26T07:55:58;1.20;79.60
68476;DHT22;55464;48.266;14.188;2023-02-26T07:58:24;1.30;79.60
68476;DHT22;55464;48.266;14.188;2023-02-26T08:00:49;1.20;79.90
68476;DHT22;55464;48.266;14.188;2023-02-26T08:03:17;1.20;79.80
68476;DHT22;55464;48.266;14.188;2023-02-26T08:05:43;1.10;80.50
68476;DHT22;55464;48.266;14.188;2023-02-26T08:08:08;1.10;80.70
68476;DHT22;55464;48.266;14.188;2023-02-26T08:10:34;1.10;79.90
68476;DHT22;55464;48.266;14.188;2023-02-26T08:13:00;1.10;79.70
68476;DHT22;55464;48.266;14.188;2023-02-26T08:15:25;1.10;80.70
68476;DHT22;55464;48.266;14.188;2023-02-26T08:17:51;1.00;81.20
68476;DHT22;55464;48.266;14.188;2023-02-26T08:20:17;1.00;81.10
68476;DHT22;55464;48.266;14.188;2023-02-26T08:22:43;1.10;80.70
68476;DHT22;55464;48.266;14.188;2023-02-26T08:25:08;1.10;80.50
68476;DHT22;55464;48.266;14.188;2023-02-26T08:27:34;1.00;80.90
68476;DHT22;55464;48.266;14.188;2023-02-26T08:29:59;1.10;80.00
68476;DHT22;55464;48.266;14.188;2023-02-26T08:32:25;1.10;80.80
68476;DHT22;55464;48.266;14.188;2023-02-26T08:34:52;1.10;81.00
68476;DHT22;55464;48.266;14.188;2023-02-26T08:37:18;1.10;80.30
68476;DHT22;55464;48.266;14.188;2023-02-26T08:39:46;1.20;79.60
68476;DHT22;55464;48.266;14.188;2023-02-26T08:42:11;1.00;79.70
68476;DHT22;55464;48.266;14.188;2023-02-26T08:44:40;1.00;80.20
68476;DHT22;55464;48.266;14.188;2023-02-26T08:47:06;1.10;80.20
68476;DHT22;55464;48.266;14.188;2023-02-26T08:49:31;1.10;80.60
68476;DHT22;55464;48.266;14.188;2023-02-26T08:51:57;1.10;80.90
68476;DHT22;55464;48.266;14.188;2023-02-26T08:54:23;1.10;81.00
68476;DHT22;55464;48.266;14.188;2023-02-26T08:56:49;1.20;81.70
68476;DHT22;55464;48.266;14.188;2023-02-26T08:59:14;1.30;80.40
68476;DHT22;55464;48.266;14.188;2023-02-26T09:01:40;1.30;80.70
68476;DHT22;55464;48.266;14.188;2023-02-26T09:04:05;1.20;80.90
68476;DHT22;55464;48.266;14.188;2023-02-26T09:06:31;1.20;81.90
68476;DHT22;55464;48.266;14.188;2023-02-26T09:08:57;1.30;81.60
68476;DHT22;55464;48.266;14.188;2023-02-26T09:11:22;1.40;81.50
68476;DHT22;55464;48.266;14.188;2023-02-26T09:13:48;1.30;82.00
68476;DHT22;55464;48.266;14.188;2023-02-26T09:16:13;1.30;82.50
68476;DHT22;55464;48.266;14.188;2023-02-26T09:18:39;1.30;83.20
68476;DHT22;55464;48.266;14.188;2023-02-26T09:21:04;1.30;83.20
68476;DHT22;55464;48.266;14.188;2023-02-26T09:23:30;1.30;83.10
68476;DHT22;55464;48.266;14.188;2023-02-26T09:25:56;1.50;83.00
68476;DHT22;55464;48.266;14.188;2023-02-26T09:28:22;1.40;82.00
68476;DHT22;55464;48.266;14.188;2023-02-26T09:30:54;1.50;81.90
68476;DHT22;55464;48.266;14.188;2023-02-26T09:33:20;1.50;81.70
68476;DHT22;55464;48.266;14.188;2023-02-26T09:35:47;1.30;81.70
68476;DHT22;55464;48.266;14.188;2023-02-26T09:38:12;1.30;82.10
68476;DHT22;55464;48.266;14.188;2023-02-26T09:43:11;1.40;82.00
68476;DHT22;55464;48.266;14.188;2023-02-26T09:45:41;1.40;82.60
68476;DHT22;55464;48.266;14.188;2023-02-26T09:48:07;1.60;80.80
68476;DHT22;55464;48.266;14.188;2023-02-26T09:50:38;1.70;81.00
68476;DHT22;55464;48.266;14.188;2023-02-26T09:53:13;1.50;80.70
68476;DHT22;55464;48.266;14.188;2023-02-26T09:55:42;1.60;81.10
68476;DHT22;55464;48.266;14.188;2023-02-26T09:58:14;1.70;80.50
68476;DHT22;55464;48.266;14.188;2023-02-26T10:00:43;1.60;79.90
68476;DHT22;55464;48.266;14.188;2023-02-26T10:03:29;1.60;80.70
68476;DHT22;55464;48.266;14.188;2023-02-26T10:13:53;2.10;80.50
68476;DHT22;55464;48.266;14.188;2023-02-26T10:16:20;2.10;80.30
68476;DHT22;55464;48.266;14.188;2023-02-26T10:18:51;2.10;80.70
68476;DHT22;55464;48.266;14.188;2023-02-26T10:21:27;2.20;80.40
68476;DHT22;55464;48.266;14.188;2023-02-26T10:23:54;2.30;80.20
68476;DHT22;55464;48.266;14.188;2023-02-26T10:26:22;2.40;81.70
68476;DHT22;55464;48.266;14.188;2023-02-26T10:28:58;2.50;80.70
68476;DHT22;55464;48.266;14.188;2023-02-26T10:34:07;2.60;77.90
68476;DHT22;55464;48.266;14.188;2023-02-26T10:42:12;3.00;77.30
68476;DHT22;55464;48.266;14.188;2023-02-26T10:47:33;2.70;76.30
68476;DHT22;55464;48.266;14.188;2023-02-26T10:52:29;2.80;77.60
68476;DHT22;55464;48.266;14.188;2023-02-26T10:55:03;3.00;76.40
68476;DHT22;55464;48.266;14.188;2023-02-26T10:57:30;2.80;73.40
68476;DHT22;55464;48.266;14.188;2023-02-26T10:59:58;2.80;75.60
68476;DHT22;55464;48.266;14.188;2023-02-26T11:02:30;2.90;73.60
68476;DHT22;55464;48.266;14.188;2023-02-26T11:04:57;2.90;71.70
68476;DHT22;55464;48.266;14.188;2023-02-26T11:07:22;3.00;71.60
68476;DHT22;55464;48.266;14.188;2023-02-26T11:09:49;2.90;71.40
68476;DHT22;55464;48.266;14.188;2023-02-26T11:12:15;2.80;71.90
68476;DHT22;55464;48.266;14.188;2023-02-26T11:14:43;2.80;71.60
68476;DHT22;55464;48.266;14.188;2023-02-26T11:17:09;2.80;72.10
68476;DHT22;55464;48.266;14.188;2023-02-26T11:19:37;2.90;73.50
68476;DHT22;55464;48.266;14.188;2023-02-26T11:22:04;2.90;70.90
68476;DHT22;55464;48.266;14.188;2023-02-26T11:24:35;2.90;71.00
68476;DHT22;55464;48.266;14.188;2023-02-26T11:27:02;3.00;68.80
68476;DHT22;55464;48.266;14.188;2023-02-26T11:29:32;3.10;71.90
68476;DHT22;55464;48.266;14.188;2023-02-26T11:32:00;3.50;70.80
68476;DHT22;55464;48.266;14.188;2023-02-26T11:34:26;3.60;68.80
68476;DHT22;55464;48.266;14.188;2023-02-26T11:36:54;3.90;69.80
68476;DHT22;55464;48.266;14.188;2023-02-26T11:39:22;4.10;69.30
68476;DHT22;55464;48.266;14.188;2023-02-26T11:41:49;4.50;68.90
68476;DHT22;55464;48.266;14.188;2023-02-26T11:44:16;4.60;67.00
68476;DHT22;55464;48.266;14.188;2023-02-26T11:46:45;4.90;68.50
68476;DHT22;55464;48.266;14.188;2023-02-26T11:49:15;5.10;64.90
68476;DHT22;55464;48.266;14.188;2023-02-26T11:51:42;5.20;65.80
68476;DHT22;55464;48.266;14.188;2023-02-26T11:54:23;5.10;63.20
68476;DHT22;55464;48.266;14.188;2023-02-26T11:56:49;5.40;63.90
68476;DHT22;55464;48.266;14.188;2023-02-26T11:59:24;5.60;65.90
68476;DHT22;55464;48.266;14.188;2023-02-26T12:01:50;5.70;62.20
68476;DHT22;55464;48.266;14.188;2023-02-26T12:04:24;5.90;61.50
68476;DHT22;55464;48.266;14.188;2023-02-26T12:06:50;5.90;61.00
68476;DHT22;55464;48.266;14.188;2023-02-26T12:09:16;6.30;61.30
68476;DHT22;55464;48.266;14.188;2023-02-26T12:11:51;6.10;60.00
68476;DHT22;55464;48.266;14.188;2023-02-26T12:22:47;4.20;58.10
68476;DHT22;55464;48.266;14.188;2023-02-26T12:30:21;4.40;60.30
68476;DHT22;55464;48.266;14.188;2023-02-26T12:32:52;4.70;60.60
68476;DHT22;55464;48.266;14.188;2023-02-26T12:42:58;5.70;53.90
68476;DHT22;55464;48.266;14.188;2023-02-26T12:45:40;5.00;53.30
68476;DHT22;55464;48.266;14.188;2023-02-26T13:08:49;5.50;55.90
68476;DHT22;55464;48.266;14.188;2023-02-26T13:16:38;8.00;48.80
68476;DHT22;55464;48.266;14.188;2023-02-26T13:21:35;9.10;44.00
68476;DHT22;55464;48.266;14.188;2023-02-26T13:24:03;9.60;46.60
68476;DHT22;55464;48.266;14.188;2023-02-26T13:26:30;9.10;43.90
68476;DHT22;55464;48.266;14.188;2023-02-26T13:28:58;8.10;45.80
68476;DHT22;55464;48.266;14.188;2023-02-26T13:31:26;7.20;47.90
68476;DHT22;55464;48.266;14.188;2023-02-26T13:33:53;6.60;48.70
68476;DHT22;55464;48.266;14.188;2023-02-26T13:36:20;6.20;52.60
68476;DHT22;55464;48.266;14.188;2023-02-26T13:39:02;5.70;50.30
68476;DHT22;55464;48.266;14.188;2023-02-26T13:41:35;5.50;52.10
68476;DHT22;55464;48.266;14.188;2023-02-26T13:44:13;5.30;53.80
68476;DHT22;55464;48.266;14.188;2023-02-26T13:46:57;5.00;54.50
68476;DHT22;55464;48.266;14.188;2023-02-26T13:51:53;4.50;53.10
68476;DHT22;55464;48.266;14.188;2023-02-26T14:01:55;4.40;55.40
68476;DHT22;55464;48.266;14.188;2023-02-26T14:06:47;5.60;55.40
68476;DHT22;55464;48.266;14.188;2023-02-26T14:16:49;5.10;54.80
68476;DHT22;55464;48.266;14.188;2023-02-26T14:21:47;4.60;56.40
68476;DHT22;55464;48.266;14.188;2023-02-26T14:26:46;4.20;56.70
68476;DHT22;55464;48.266;14.188;2023-02-26T14:29:18;4.00;57.60
68476;DHT22;55464;48.266;14.188;2023-02-26T14:34:50;4.00;57.60
68476;DHT22;55464;48.266;14.188;2023-02-26T14:37:18;3.80;58.30
68476;DHT22;55464;48.266;14.188;2023-02-26T14:39:48;3.70;59.20
68476;DHT22;55464;48.266;14.188;2023-02-26T14:45:02;3.90;57.50
68476;DHT22;55464;48.266;14.188;2023-02-26T14:47:30;3.90;58.20
68476;DHT22;55464;48.266;14.188;2023-02-26T14:49:56;3.80;58.60
68476;DHT22;55464;48.266;14.188;2023-02-26T14:52:35;3.90;58.80
68476;DHT22;55464;48.266;14.188;2023-02-26T15:02:32;4.10;55.50
68476;DHT22;55464;48.266;14.188;2023-02-26T15:07:48;4.10;53.50
68476;DHT22;55464;48.266;14.188;2023-02-26T15:17:40;3.70;55.00
68476;DHT22;55464;48.266;14.188;2023-02-26T15:20:09;3.80;56.90
68476;DHT22;55464;48.266;14.188;2023-02-26T15:25:27;3.60;57.20
68476;DHT22;55464;48.266;14.188;2023-02-26T15:27:54;3.70;57.10
68476;DHT22;55464;48.266;14.188;2023-02-26T15:30:21;3.60;57.80
68476;DHT22;55464;48.266;14.188;2023-02-26T15:32:47;3.60;57.80
68476;DHT22;55464;48.266;14.188;2023-02-26T15:35:17;3.60;57.60
68476;DHT22;55464;48.266;14.188;2023-02-26T15:37:46;3.60;57.80
68476;DHT22;55464;48.266;14.188;2023-02-26T15:40:13;3.60;57.00
68476;DHT22;55464;48.266;14.188;2023-02-26T15:42:39;3.50;57.50
68476;DHT22;55464;48.266;14.188;2023-02-26T15:45:09;3.40;57.20
68476;DHT22;55464;48.266;14.188;2023-02-26T15:47:37;3.40;57.70
68476;DHT22;55464;48.266;14.188;2023-02-26T15:50:02;3.50;57.50
68476;DHT22;55464;48.266;14.188;2023-02-26T15:52:28;3.50;56.70
68476;DHT22;55464;48.266;14.188;2023-02-26T15:54:57;3.30;57.30
68476;DHT22;55464;48.266;14.188;2023-02-26T15:57:25;3.10;58.70
68476;DHT22;55464;48.266;14.188;2023-02-26T15:59:52;3.10;58.00
68476;DHT22;55464;48.266;14.188;2023-02-26T16:02:20;3.00;57.80
68476;DHT22;55464;48.266;14.188;2023-02-26T16:04:45;2.90;58.80
68476;DHT22;55464;48.266;14.188;2023-02-26T16:07:11;2.80;58.90
68476;DHT22;55464;48.266;14.188;2023-02-26T16:09:39;2.70;59.50
68476;DHT22;55464;48.266;14.188;2023-02-26T16:12:08;2.70;59.10
68476;DHT22;55464;48.266;14.188;2023-02-26T16:14:37;2.70;58.50
68476;DHT22;55464;48.266;14.188;2023-02-26T16:17:04;2.70;57.50
68476;DHT22;55464;48.266;14.188;2023-02-26T16:19:32;2.60;57.40
68476;DHT22;55464;48.266;14.188;2023-02-26T16:21:59;2.70;57.30
68476;DHT22;55464;48.266;14.188;2023-02-26T16:24:25;2.70;57.40
68476;DHT22;55464;48.266;14.188;2023-02-26T16:26:54;2.60;59.10
68476;DHT22;55464;48.266;14.188;2023-02-26T16:29:24;2.40;59.40
68476;DHT22;55464;48.266;14.188;2023-02-26T16:31:51;2.40;58.80
68476;DHT22;55464;48.266;14.188;2023-02-26T16:34:22;2.30;59.60
68476;DHT22;55464;48.266;14.188;2023-02-26T16:36:47;2.10;60.90
68476;DHT22;55464;48.266;14.188;2023-02-26T16:39:20;2.20;60.40
68476;DHT22;55464;48.266;14.188;2023-02-26T16:41:47;2.10;60.50
68476;DHT22;55464;48.266;14.188;2023-02-26T16:44:56;2.10;60.30
68476;DHT22;55464;48.266;14.188;2023-02-26T16:47:02;2.10;60.50
68476;DHT22;55464;48.266;14.188;2023-02-26T16:49:29;2.20;60.50
68476;DHT22;55464;48.266;14.188;2023-02-26T16:51:55;2.20;60.70
68476;DHT22;55464;48.266;14.188;2023-02-26T16:54:23;2.20;61.70
68476;DHT22;55464;48.266;14.188;2023-02-26T16:56:58;2.20;62.10
68476;DHT22;55464;48.266;14.188;2023-02-26T16:59:25;2.10;62.20
68476;DHT22;55464;48.266;14.188;2023-02-26T17:01:55;2.10;63.40
68476;DHT22;55464;48.266;14.188;2023-02-26T17:04:22;2.00;63.90
68476;DHT22;55464;48.266;14.188;2023-02-26T17:06:49;2.10;63.20
68476;DHT22;55464;48.266;14.188;2023-02-26T17:09:26;2.10;63.70
68476;DHT22;55464;48.266;14.188;2023-02-26T17:12:02;2.00;65.10
68476;DHT22;55464;48.266;14.188;2023-02-26T17:14:28;2.00;65.50
68476;DHT22;55464;48.266;14.188;2023-02-26T17:16:55;2.10;65.10
68476;DHT22;55464;48.266;14.188;2023-02-26T17:19:21;2.00;65.70
68476;DHT22;55464;48.266;14.188;2023-02-26T17:24:16;2.00;65.90
68476;DHT22;55464;48.266;14.188;2023-02-26T17:26:42;1.80;66.60
68476;DHT22;55464;48.266;14.188;2023-02-26T17:29:11;1.80;67.50
68476;DHT22;55464;48.266;14.188;2023-02-26T17:31:40;1.70;68.10
68476;DHT22;55464;48.266;14.188;2023-02-26T17:34:09;1.70;68.10
68476;DHT22;55464;48.266;14.188;2023-02-26T17:36:35;1.70;68.20
68476;DHT22;55464;48.266;14.188;2023-02-26T17:39:00;1.60;68.20
68476;DHT22;55464;48.266;14.188;2023-02-26T17:41:26;1.60;68.80
68476;DHT22;55464;48.266;14.188;2023-02-26T17:43:52;1.60;68.50
68476;DHT22;55464;48.266;14.188;2023-02-26T17:46:18;1.50;67.90
68476;DHT22;55464;48.266;14.188;2023-02-26T17:48:43;1.50;68.60
68476;DHT22;55464;48.266;14.188;2023-02-26T17:51:09;1.50;68.70
68476;DHT22;55464;48.266;14.188;2023-02-26T17:53:35;1.40;68.10
68476;DHT22;55464;48.266;14.188;2023-02-26T17:56:13;1.40;68.10
68476;DHT22;55464;48.266;14.188;2023-02-26T17:58:40;1.50;68.10
68476;DHT22;55464;48.266;14.188;2023-02-26T18:01:05;1.50;67.70
68476;DHT22;55464;48.266;14.188;2023-02-26T18:03:32;1.50;67.10
68476;DHT22;55464;48.266;14.188;2023-02-26T18:05:58;1.60;66.80
68476;DHT22;55464;48.266;14.188;2023-02-26T18:08:30;1.40;67.80
68476;DHT22;55464;48.266;14.188;2023-02-26T18:10:57;1.30;67.70
68476;DHT22;55464;48.266;14.188;2023-02-26T18:13:23;1.30;68.20
68476;DHT22;55464;48.266;14.188;2023-02-26T18:15:50;1.20;68.00
68476;DHT22;55464;48.266;14.188;2023-02-26T18:18:16;1.20;68.00
68476;DHT22;55464;48.266;14.188;2023-02-26T18:20:42;1.20;68.60
68476;DHT22;55464;48.266;14.188;2023-02-26T18:23:11;1.10;68.80
68476;DHT22;55464;48.266;14.188;2023-02-26T18:25:38;1.10;68.70
68476;DHT22;55464;48.266;14.188;2023-02-26T18:28:04;1.10;69.20
68476;DHT22;55464;48.266;14.188;2023-02-26T18:30:31;1.00;69.00
68476;DHT22;55464;48.266;14.188;2023-02-26T18:32:57;0.90;69.60